sensor_id;sensor_type;location;lat;lon;timestamp;P1;durP1;ratioP1;P2;durP2;ratioP2
25810;SDS011;13645;52.460;13.910;2022-12-07T00:03:37;7.28;;;5.53;;
25810;SDS011;13645;52.460;13.910;2022-12-07T00:06:06;6.20;;;4.72;;
25810;SDS011;13645;52.460;13.910;2022-12-07T00:08:34;5.93;;;4.40;;
25810;SDS011;13645;52.460;13.910;2022-12-07T00:11:14;5.57;;;4.00;;
25810;SDS011;13645;52.460;13.910;2022-12-07T00:13:43;5.57;;;4.13;;
25810;SDS011;13645;52.460;13.910;2022-12-07T00:16:12;9.38;;;4.22;;
25810;SDS011;13645;52.460;13.910;2022-12-07T00:18:44;5.32;;;4.22;;
25810;SDS011;13645;52.460;13.910;2022-12-07T00:21:15;5.78;;;4.53;;
25810;SDS011;13645;52.460;13.910;2022-12-07T00:23:47;5.70;;;4.47;;
25810;SDS011;13645;52.460;13.910;2022-12-07T00:26:16;6.38;;;4.78;;
25810;SDS011;13645;52.460;13.910;2022-12-07T00:28:48;8.27;;;4.97;;
25810;SDS011;13645;52.460;13.910;2022-12-07T00:31:17;6.80;;;4.88;;
25810;SDS011;13645;52.460;13.910;2022-12-07T00:33:46;8.13;;;5.68;;
25810;SDS011;13645;52.460;13.910;2022-12-07T00:36:14;9.90;;;6.35;;
25810;SDS011;13645;52.460;13.910;2022-12-07T00:38:48;11.68;;;7.20;;
25810;SDS011;13645;52.460;13.910;2022-12-07T00:41:16;13.60;;;8.88;;
25810;SDS011;13645;52.460;13.910;2022-12-07T00:43:45;18.63;;;9.20;;
25810;SDS011;13645;52.460;13.910;2022-12-07T00:46:13;16.27;;;9.25;;
25810;SDS011;13645;52.460;13.910;2022-12-07T00:48:41;17.30;;;11.25;;
25810;SDS011;13645;52.460;13.910;2022-12-07T00:51:09;18.42;;;10.93;;
25810;SDS011;13645;52.460;13.910;2022-12-07T00:53:37;20.90;;;11.55;;
25810;SDS011;13645;52.460;13.910;2022-12-07T00:56:20;21.02;;;12.00;;
25810;SDS011;13645;52.460;13.910;2022-12-07T00:58:50;18.92;;;11.95;;
25810;SDS011;13645;52.460;13.910;2022-12-07T01:01:28;21.05;;;11.63;;
25810;SDS011;13645;52.460;13.910;2022-12-07T01:03:57;22.33;;;11.45;;
25810;SDS011;13645;52.460;13.910;2022-12-07T01:06:24;19.52;;;10.88;;
25810;SDS011;13645;52.460;13.910;2022-12-07T01:08:51;23.17;;;11.88;;
25810;SDS011;13645;52.460;13.910;2022-12-07T01:11:20;22.58;;;11.02;;
25810;SDS011;13645;52.460;13.910;2022-12-07T01:13:52;20.90;;;11.10;;
25810;SDS011;13645;52.460;13.910;2022-12-07T01:16:21;19.70;;;11.82;;
25810;SDS011;13645;52.460;13.910;2022-12-07T01:18:50;20.50;;;11.65;;
25810;SDS011;13645;52.460;13.910;2022-12-07T01:21:22;22.33;;;10.93;;
25810;SDS011;13645;52.460;13.910;2022-12-07T01:23:53;16.30;;;9.55;;
25810;SDS011;13645;52.460;13.910;2022-12-07T01:26:23;18.60;;;9.70;;
25810;SDS011;13645;52.460;13.910;2022-12-07T01:28:50;17.95;;;9.07;;
25810;SDS011;13645;52.460;13.910;2022-12-07T01:31:19;18.65;;;9.05;;
25810;SDS011;13645;52.460;13.910;2022-12-07T01:33:49;13.73;;;8.68;;
25810;SDS011;13645;52.460;13.910;2022-12-07T01:36:18;14.02;;;8.48;;
25810;SDS011;13645;52.460;13.910;2022-12-07T01:39:00;15.18;;;8.80;;
25810;SDS011;13645;52.460;13.910;2022-12-07T01:41:32;14.93;;;9.68;;
25810;SDS011;13645;52.460;13.910;2022-12-07T01:46:37;17.48;;;9.68;;
25810;SDS011;13645;52.460;13.910;2022-12-07T01:49:05;13.52;;;8.70;;
25810;SDS011;13645;52.460;13.910;2022-12-07T01:51:34;17.20;;;9.10;;
25810;SDS011;13645;52.460;13.910;2022-12-07T01:54:04;15.48;;;9.70;;
25810;SDS011;13645;52.460;13.910;2022-12-07T01:56:31;15.15;;;9.85;;
25810;SDS011;13645;52.460;13.910;2022-12-07T01:58:58;15.60;;;9.55;;
25810;SDS011;13645;52.460;13.910;2022-12-07T02:01:27;13.70;;;9.13;;
25810;SDS011;13645;52.460;13.910;2022-12-07T02:03:54;16.20;;;9.40;;
25810;SDS011;13645;52.460;13.910;2022-12-07T02:06:22;14.30;;;9.35;;
25810;SDS011;13645;52.460;13.910;2022-12-07T02:08:50;13.50;;;8.77;;
25810;SDS011;13645;52.460;13.910;2022-12-07T02:11:18;14.02;;;8.90;;
25810;SDS011;13645;52.460;13.910;2022-12-07T02:13:45;14.32;;;9.45;;
25810;SDS011;13645;52.460;13.910;2022-12-07T02:21:59;15.27;;;8.88;;
25810;SDS011;13645;52.460;13.910;2022-12-07T02:24:53;13.48;;;8.38;;
25810;SDS011;13645;52.460;13.910;2022-12-07T02:30:44;14.57;;;8.93;;
25810;SDS011;13645;52.460;13.910;2022-12-07T02:36:14;14.52;;;9.30;;
25810;SDS011;13645;52.460;13.910;2022-12-07T02:38:53;13.82;;;8.82;;
25810;SDS011;13645;52.460;13.910;2022-12-07T02:41:26;13.30;;;8.30;;
25810;SDS011;13645;52.460;13.910;2022-12-07T02:43:59;14.23;;;9.02;;
25810;SDS011;13645;52.460;13.910;2022-12-07T02:46:30;13.95;;;9.63;;
25810;SDS011;13645;52.460;13.910;2022-12-07T02:49:02;13.85;;;8.63;;
25810;SDS011;13645;52.460;13.910;2022-12-07T02:51:30;18.45;;;9.00;;
25810;SDS011;13645;52.460;13.910;2022-12-07T02:53:58;17.08;;;8.57;;
25810;SDS011;13645;52.460;13.910;2022-12-07T03:02:23;14.93;;;8.55;;
25810;SDS011;13645;52.460;13.910;2022-12-07T03:18:05;12.48;;;8.10;;
25810;SDS011;13645;52.460;13.910;2022-12-07T03:20:35;13.30;;;8.40;;
25810;SDS011;13645;52.460;13.910;2022-12-07T03:23:04;12.85;;;7.93;;
25810;SDS011;13645;52.460;13.910;2022-12-07T03:25:38;12.38;;;7.60;;
25810;SDS011;13645;52.460;13.910;2022-12-07T03:28:08;12.20;;;7.78;;
25810;SDS011;13645;52.460;13.910;2022-12-07T03:30:44;14.43;;;8.55;;
25810;SDS011;13645;52.460;13.910;2022-12-07T03:33:29;12.80;;;8.10;;
25810;SDS011;13645;52.460;13.910;2022-12-07T03:36:16;14.05;;;8.95;;
25810;SDS011;13645;52.460;13.910;2022-12-07T03:38:52;12.60;;;8.30;;
25810;SDS011;13645;52.460;13.910;2022-12-07T03:41:25;13.02;;;8.02;;
25810;SDS011;13645;52.460;13.910;2022-12-07T03:43:57;17.30;;;8.48;;
25810;SDS011;13645;52.460;13.910;2022-12-07T03:49:08;13.75;;;7.63;;
25810;SDS011;13645;52.460;13.910;2022-12-07T03:54:14;11.07;;;7.07;;
25810;SDS011;13645;52.460;13.910;2022-12-07T03:56:47;12.25;;;7.18;;
25810;SDS011;13645;52.460;13.910;2022-12-07T03:59:15;12.38;;;7.25;;
25810;SDS011;13645;52.460;13.910;2022-12-07T04:01:43;10.30;;;7.38;;
25810;SDS011;13645;52.460;13.910;2022-12-07T04:04:11;9.48;;;6.65;;
25810;SDS011;13645;52.460;13.910;2022-12-07T04:06:38;10.95;;;7.55;;
25810;SDS011;13645;52.460;13.910;2022-12-07T04:09:05;13.93;;;7.28;;
25810;SDS011;13645;52.460;13.910;2022-12-07T04:14:45;11.65;;;7.28;;
25810;SDS011;13645;52.460;13.910;2022-12-07T04:17:12;14.10;;;7.25;;
25810;SDS011;13645;52.460;13.910;2022-12-07T04:19:39;10.68;;;6.93;;
25810;SDS011;13645;52.460;13.910;2022-12-07T04:22:06;12.93;;;7.60;;
25810;SDS011;13645;52.460;13.910;2022-12-07T04:24:33;12.63;;;7.78;;
25810;SDS011;13645;52.460;13.910;2022-12-07T04:27:00;12.65;;;7.65;;
25810;SDS011;13645;52.460;13.910;2022-12-07T04:29:27;15.02;;;8.48;;
25810;SDS011;13645;52.460;13.910;2022-12-07T04:31:54;12.63;;;8.27;;
25810;SDS011;13645;52.460;13.910;2022-12-07T04:34:21;13.30;;;8.13;;
25810;SDS011;13645;52.460;13.910;2022-12-07T04:36:48;11.55;;;7.53;;
25810;SDS011;13645;52.460;13.910;2022-12-07T04:39:31;16.52;;;8.52;;
25810;SDS011;13645;52.460;13.910;2022-12-07T04:41:59;12.68;;;8.50;;
25810;SDS011;13645;52.460;13.910;2022-12-07T04:44:27;13.60;;;8.73;;
25810;SDS011;13645;52.460;13.910;2022-12-07T04:46:55;15.80;;;9.38;;
25810;SDS011;13645;52.460;13.910;2022-12-07T04:53:04;17.63;;;9.20;;
25810;SDS011;13645;52.460;13.910;2022-12-07T04:55:31;17.15;;;9.07;;
25810;SDS011;13645;52.460;13.910;2022-12-07T04:57:58;14.57;;;9.30;;
25810;SDS011;13645;52.460;13.910;2022-12-07T05:00:24;16.95;;;9.88;;
25810;SDS011;13645;52.460;13.910;2022-12-07T05:02:52;19.55;;;10.32;;
25810;SDS011;13645;52.460;13.910;2022-12-07T05:05:19;17.30;;;9.73;;
25810;SDS011;13645;52.460;13.910;2022-12-07T05:07:45;21.80;;;10.25;;
25810;SDS011;13645;52.460;13.910;2022-12-07T05:16:53;23.35;;;12.50;;
25810;SDS011;13645;52.460;13.910;2022-12-07T05:19:20;22.27;;;12.57;;
25810;SDS011;13645;52.460;13.910;2022-12-07T05:21:47;24.73;;;13.30;;
25810;SDS011;13645;52.460;13.910;2022-12-07T05:24:15;24.05;;;13.15;;
25810;SDS011;13645;52.460;13.910;2022-12-07T05:26:43;25.83;;;13.35;;
25810;SDS011;13645;52.460;13.910;2022-12-07T05:29:12;26.23;;;13.90;;
25810;SDS011;13645;52.460;13.910;2022-12-07T05:31:40;33.28;;;15.18;;
25810;SDS011;13645;52.460;13.910;2022-12-07T05:34:07;29.52;;;14.75;;
25810;SDS011;13645;52.460;13.910;2022-12-07T05:36:34;27.80;;;15.50;;
25810;SDS011;13645;52.460;13.910;2022-12-07T05:39:01;30.92;;;15.50;;
25810;SDS011;13645;52.460;13.910;2022-12-07T05:41:28;32.70;;;16.73;;
25810;SDS011;13645;52.460;13.910;2022-12-07T05:44:14;30.85;;;15.82;;
25810;SDS011;13645;52.460;13.910;2022-12-07T05:46:41;30.85;;;15.75;;
25810;SDS011;13645;52.460;13.910;2022-12-07T05:49:08;34.90;;;17.23;;
25810;SDS011;13645;52.460;13.910;2022-12-07T05:51:34;33.75;;;18.40;;
25810;SDS011;13645;52.460;13.910;2022-12-07T05:54:01;32.05;;;17.02;;
25810;SDS011;13645;52.460;13.910;2022-12-07T05:56:28;32.95;;;16.67;;
25810;SDS011;13645;52.460;13.910;2022-12-07T05:58:55;36.67;;;18.45;;
25810;SDS011;13645;52.460;13.910;2022-12-07T06:01:40;38.15;;;17.90;;
25810;SDS011;13645;52.460;13.910;2022-12-07T06:04:07;35.50;;;17.80;;
25810;SDS011;13645;52.460;13.910;2022-12-07T06:06:34;36.33;;;18.63;;
25810;SDS011;13645;52.460;13.910;2022-12-07T06:09:01;38.25;;;19.10;;
25810;SDS011;13645;52.460;13.910;2022-12-07T06:11:28;37.17;;;19.00;;
25810;SDS011;13645;52.460;13.910;2022-12-07T06:14:17;48.72;;;19.70;;
25810;SDS011;13645;52.460;13.910;2022-12-07T06:16:43;37.40;;;19.25;;
25810;SDS011;13645;52.460;13.910;2022-12-07T06:19:10;35.95;;;18.45;;
25810;SDS011;13645;52.460;13.910;2022-12-07T06:21:37;38.40;;;18.88;;
25810;SDS011;13645;52.460;13.910;2022-12-07T06:24:06;41.00;;;19.90;;
25810;SDS011;13645;52.460;13.910;2022-12-07T06:26:33;40.83;;;19.30;;
25810;SDS011;13645;52.460;13.910;2022-12-07T06:28:59;45.42;;;20.58;;
25810;SDS011;13645;52.460;13.910;2022-12-07T06:31:26;47.03;;;20.77;;
25810;SDS011;13645;52.460;13.910;2022-12-07T06:34:00;50.45;;;24.55;;
25810;SDS011;13645;52.460;13.910;2022-12-07T06:36:28;50.15;;;23.95;;
25810;SDS011;13645;52.460;13.910;2022-12-07T06:38:55;50.75;;;23.77;;
25810;SDS011;13645;52.460;13.910;2022-12-07T06:41:22;51.63;;;23.88;;
25810;SDS011;13645;52.460;13.910;2022-12-07T06:43:49;50.67;;;22.45;;
25810;SDS011;13645;52.460;13.910;2022-12-07T06:46:21;47.53;;;23.10;;
25810;SDS011;13645;52.460;13.910;2022-12-07T06:48:48;52.55;;;22.73;;
25810;SDS011;13645;52.460;13.910;2022-12-07T06:51:15;46.33;;;22.25;;
25810;SDS011;13645;52.460;13.910;2022-12-07T06:53:42;50.53;;;23.83;;
25810;SDS011;13645;52.460;13.910;2022-12-07T06:56:09;46.17;;;21.52;;
25810;SDS011;13645;52.460;13.910;2022-12-07T06:58:36;53.63;;;24.27;;
25810;SDS011;13645;52.460;13.910;2022-12-07T07:01:03;47.47;;;22.77;;
25810;SDS011;13645;52.460;13.910;2022-12-07T07:03:44;49.90;;;21.58;;
25810;SDS011;13645;52.460;13.910;2022-12-07T07:06:12;48.38;;;22.00;;
25810;SDS011;13645;52.460;13.910;2022-12-07T07:08:39;51.88;;;21.80;;
25810;SDS011;13645;52.460;13.910;2022-12-07T07:11:06;41.50;;;20.75;;
25810;SDS011;13645;52.460;13.910;2022-12-07T07:13:34;45.17;;;21.90;;
25810;SDS011;13645;52.460;13.910;2022-12-07T07:16:02;45.63;;;21.02;;
25810;SDS011;13645;52.460;13.910;2022-12-07T07:18:29;44.67;;;20.30;;
25810;SDS011;13645;52.460;13.910;2022-12-07T07:20:55;46.03;;;21.52;;
25810;SDS011;13645;52.460;13.910;2022-12-07T07:23:22;47.78;;;20.60;;
25810;SDS011;13645;52.460;13.910;2022-12-07T07:25:49;41.45;;;21.02;;
25810;SDS011;13645;52.460;13.910;2022-12-07T07:28:16;44.17;;;22.30;;
25810;SDS011;13645;52.460;13.910;2022-12-07T07:30:44;44.95;;;21.40;;
25810;SDS011;13645;52.460;13.910;2022-12-07T07:33:11;43.58;;;21.80;;
25810;SDS011;13645;52.460;13.910;2022-12-07T07:35:38;44.20;;;21.67;;
25810;SDS011;13645;52.460;13.910;2022-12-07T07:38:05;46.42;;;21.33;;
25810;SDS011;13645;52.460;13.910;2022-12-07T07:40:33;43.15;;;21.63;;
25810;SDS011;13645;52.460;13.910;2022-12-07T07:43:00;40.70;;;21.05;;
25810;SDS011;13645;52.460;13.910;2022-12-07T07:45:27;40.13;;;20.42;;
25810;SDS011;13645;52.460;13.910;2022-12-07T07:47:53;42.15;;;20.50;;
25810;SDS011;13645;52.460;13.910;2022-12-07T07:50:20;44.05;;;22.42;;
25810;SDS011;13645;52.460;13.910;2022-12-07T07:52:48;47.10;;;22.10;;
25810;SDS011;13645;52.460;13.910;2022-12-07T07:55:16;49.63;;;22.80;;
25810;SDS011;13645;52.460;13.910;2022-12-07T07:57:42;44.00;;;21.38;;
25810;SDS011;13645;52.460;13.910;2022-12-07T08:00:16;45.53;;;22.35;;
25810;SDS011;13645;52.460;13.910;2022-12-07T08:02:43;44.72;;;23.08;;
25810;SDS011;13645;52.460;13.910;2022-12-07T08:05:11;42.08;;;21.27;;
25810;SDS011;13645;52.460;13.910;2022-12-07T08:07:38;50.53;;;22.65;;
25810;SDS011;13645;52.460;13.910;2022-12-07T08:10:06;40.33;;;21.00;;
25810;SDS011;13645;52.460;13.910;2022-12-07T08:12:35;39.50;;;20.88;;
25810;SDS011;13645;52.460;13.910;2022-12-07T08:15:27;46.53;;;22.33;;
25810;SDS011;13645;52.460;13.910;2022-12-07T08:17:54;44.85;;;21.88;;
25810;SDS011;13645;52.460;13.910;2022-12-07T08:20:21;42.10;;;20.85;;
25810;SDS011;13645;52.460;13.910;2022-12-07T08:22:48;40.53;;;20.20;;
25810;SDS011;13645;52.460;13.910;2022-12-07T08:25:15;43.60;;;19.77;;
25810;SDS011;13645;52.460;13.910;2022-12-07T08:27:42;42.95;;;20.23;;
25810;SDS011;13645;52.460;13.910;2022-12-07T08:30:09;40.10;;;20.33;;
25810;SDS011;13645;52.460;13.910;2022-12-07T08:32:36;35.65;;;19.20;;
25810;SDS011;13645;52.460;13.910;2022-12-07T08:35:02;39.65;;;20.15;;
25810;SDS011;13645;52.460;13.910;2022-12-07T08:37:29;40.20;;;19.10;;
25810;SDS011;13645;52.460;13.910;2022-12-07T08:39:57;43.35;;;21.35;;
25810;SDS011;13645;52.460;13.910;2022-12-07T08:42:23;37.50;;;18.80;;
25810;SDS011;13645;52.460;13.910;2022-12-07T08:44:56;37.85;;;18.48;;
25810;SDS011;13645;52.460;13.910;2022-12-07T08:47:23;40.08;;;18.98;;
25810;SDS011;13645;52.460;13.910;2022-12-07T08:49:51;35.72;;;17.35;;
25810;SDS011;13645;52.460;13.910;2022-12-07T08:52:19;30.33;;;15.70;;
25810;SDS011;13645;52.460;13.910;2022-12-07T08:54:46;27.20;;;15.50;;
25810;SDS011;13645;52.460;13.910;2022-12-07T08:57:13;28.65;;;14.77;;
25810;SDS011;13645;52.460;13.910;2022-12-07T08:59:40;31.70;;;13.45;;
25810;SDS011;13645;52.460;13.910;2022-12-07T09:02:06;20.27;;;11.77;;
25810;SDS011;13645;52.460;13.910;2022-12-07T09:04:33;28.02;;;12.35;;
25810;SDS011;13645;52.460;13.910;2022-12-07T09:07:00;21.95;;;11.25;;
25810;SDS011;13645;52.460;13.910;2022-12-07T09:09:27;20.33;;;10.40;;
25810;SDS011;13645;52.460;13.910;2022-12-07T09:11:54;20.73;;;10.95;;
25810;SDS011;13645;52.460;13.910;2022-12-07T09:14:27;16.75;;;9.73;;
25810;SDS011;13645;52.460;13.910;2022-12-07T09:16:53;16.15;;;8.57;;
25810;SDS011;13645;52.460;13.910;2022-12-07T09:19:20;15.75;;;7.85;;
25810;SDS011;13645;52.460;13.910;2022-12-07T09:21:47;13.52;;;7.70;;
25810;SDS011;13645;52.460;13.910;2022-12-07T09:24:13;11.65;;;7.38;;
25810;SDS011;13645;52.460;13.910;2022-12-07T09:26:40;15.30;;;8.15;;
25810;SDS011;13645;52.460;13.910;2022-12-07T09:29:07;11.02;;;7.05;;
25810;SDS011;13645;52.460;13.910;2022-12-07T09:31:35;13.35;;;7.28;;
25810;SDS011;13645;52.460;13.910;2022-12-07T09:34:03;11.52;;;7.38;;
25810;SDS011;13645;52.460;13.910;2022-12-07T09:36:31;12.80;;;6.20;;
25810;SDS011;13645;52.460;13.910;2022-12-07T09:38:58;12.40;;;6.00;;
25810;SDS011;13645;52.460;13.910;2022-12-07T09:41:26;7.70;;;5.35;;
25810;SDS011;13645;52.460;13.910;2022-12-07T09:44:04;13.13;;;4.55;;
25810;SDS011;13645;52.460;13.910;2022-12-07T09:46:34;6.90;;;4.82;;
25810;SDS011;13645;52.460;13.910;2022-12-07T09:49:08;7.13;;;4.40;;
25810;SDS011;13645;52.460;13.910;2022-12-07T09:51:38;8.57;;;5.53;;
25810;SDS011;13645;52.460;13.910;2022-12-07T09:54:05;9.88;;;5.40;;
25810;SDS011;13645;52.460;13.910;2022-12-07T09:56:32;9.15;;;4.95;;
25810;SDS011;13645;52.460;13.910;2022-12-07T09:58:59;8.30;;;4.18;;
25810;SDS011;13645;52.460;13.910;2022-12-07T10:01:29;6.30;;;3.78;;
25810;SDS011;13645;52.460;13.910;2022-12-07T10:04:08;6.25;;;3.60;;
25810;SDS011;13645;52.460;13.910;2022-12-07T10:06:35;6.32;;;3.80;;
25810;SDS011;13645;52.460;13.910;2022-12-07T10:09:08;9.07;;;3.92;;
25810;SDS011;13645;52.460;13.910;2022-12-07T10:12:01;7.18;;;3.40;;
25810;SDS011;13645;52.460;13.910;2022-12-07T10:14:34;4.50;;;3.22;;
25810;SDS011;13645;52.460;13.910;2022-12-07T10:25:28;2.95;;;2.10;;
25810;SDS011;13645;52.460;13.910;2022-12-07T10:33:36;3.33;;;2.28;;
25810;SDS011;13645;52.460;13.910;2022-12-07T10:36:36;2.83;;;2.10;;
25810;SDS011;13645;52.460;13.910;2022-12-07T10:39:12;2.20;;;1.90;;
25810;SDS011;13645;52.460;13.910;2022-12-07T10:44:30;3.67;;;2.00;;
25810;SDS011;13645;52.460;13.910;2022-12-07T10:50:08;2.92;;;2.28;;
25810;SDS011;13645;52.460;13.910;2022-12-07T10:53:05;4.07;;;1.90;;
25810;SDS011;13645;52.460;13.910;2022-12-07T11:04:50;3.35;;;2.10;;
25810;SDS011;13645;52.460;13.910;2022-12-07T11:10:41;3.00;;;1.98;;
25810;SDS011;13645;52.460;13.910;2022-12-07T11:15:57;2.30;;;1.75;;
25810;SDS011;13645;52.460;13.910;2022-12-07T11:21:45;3.75;;;1.70;;
25810;SDS011;13645;52.460;13.910;2022-12-07T11:24:17;2.85;;;1.55;;
25810;SDS011;13645;52.460;13.910;2022-12-07T11:27:20;1.73;;;1.48;;
25810;SDS011;13645;52.460;13.910;2022-12-07T11:38:07;2.15;;;1.58;;
25810;SDS011;13645;52.460;13.910;2022-12-07T11:40:52;2.13;;;1.63;;
25810;SDS011;13645;52.460;13.910;2022-12-07T11:43:26;4.18;;;1.90;;
25810;SDS011;13645;52.460;13.910;2022-12-07T11:46:12;3.33;;;1.70;;
25810;SDS011;13645;52.460;13.910;2022-12-07T11:48:43;4.25;;;1.90;;
25810;SDS011;13645;52.460;13.910;2022-12-07T11:51:15;2.65;;;1.85;;
25810;SDS011;13645;52.460;13.910;2022-12-07T11:53:54;4.28;;;2.08;;
25810;SDS011;13645;52.460;13.910;2022-12-07T11:56:27;4.85;;;1.70;;
25810;SDS011;13645;52.460;13.910;2022-12-07T12:06:37;4.18;;;2.15;;
25810;SDS011;13645;52.460;13.910;2022-12-07T12:15:23;3.65;;;2.10;;
25810;SDS011;13645;52.460;13.910;2022-12-07T12:23:00;3.92;;;2.08;;
25810;SDS011;13645;52.460;13.910;2022-12-07T12:25:42;4.00;;;1.88;;
25810;SDS011;13645;52.460;13.910;2022-12-07T12:31:12;3.35;;;2.10;;
25810;SDS011;13645;52.460;13.910;2022-12-07T12:33:50;6.07;;;2.40;;
25810;SDS011;13645;52.460;13.910;2022-12-07T12:51:43;5.10;;;2.78;;
25810;SDS011;13645;52.460;13.910;2022-12-07T12:59:36;6.57;;;2.97;;
25810;SDS011;13645;52.460;13.910;2022-12-07T13:02:28;5.47;;;2.15;;
25810;SDS011;13645;52.460;13.910;2022-12-07T13:12:57;4.82;;;2.13;;
25810;SDS011;13645;52.460;13.910;2022-12-07T13:15:49;7.55;;;2.60;;
25810;SDS011;13645;52.460;13.910;2022-12-07T13:28:51;11.32;;;2.53;;
25810;SDS011;13645;52.460;13.910;2022-12-07T13:34:02;6.30;;;1.75;;
25810;SDS011;13645;52.460;13.910;2022-12-07T13:36:36;9.05;;;2.25;;
25810;SDS011;13645;52.460;13.910;2022-12-07T13:41:43;9.45;;;2.42;;
25810;SDS011;13645;52.460;13.910;2022-12-07T13:44:14;4.45;;;1.90;;
25810;SDS011;13645;52.460;13.910;2022-12-07T13:46:53;10.50;;;2.55;;
25810;SDS011;13645;52.460;13.910;2022-12-07T13:49:30;6.20;;;1.98;;
25810;SDS011;13645;52.460;13.910;2022-12-07T13:52:18;5.25;;;1.80;;
25810;SDS011;13645;52.460;13.910;2022-12-07T13:55:13;8.05;;;2.40;;
25810;SDS011;13645;52.460;13.910;2022-12-07T13:57:40;9.00;;;1.90;;
25810;SDS011;13645;52.460;13.910;2022-12-07T14:00:18;10.65;;;2.20;;
25810;SDS011;13645;52.460;13.910;2022-12-07T14:05:41;5.75;;;2.20;;
25810;SDS011;13645;52.460;13.910;2022-12-07T14:10:37;5.68;;;1.90;;
25810;SDS011;13645;52.460;13.910;2022-12-07T14:16:02;6.25;;;1.92;;
25810;SDS011;13645;52.460;13.910;2022-12-07T14:21:21;10.13;;;2.28;;
25810;SDS011;13645;52.460;13.910;2022-12-07T14:26:38;5.75;;;1.95;;
25810;SDS011;13645;52.460;13.910;2022-12-07T14:29:19;4.68;;;2.20;;
25810;SDS011;13645;52.460;13.910;2022-12-07T14:31:53;10.48;;;2.33;;
25810;SDS011;13645;52.460;13.910;2022-12-07T14:34:21;6.68;;;2.00;;
25810;SDS011;13645;52.460;13.910;2022-12-07T14:36:49;9.48;;;1.95;;
25810;SDS011;13645;52.460;13.910;2022-12-07T14:39:16;10.82;;;2.08;;
25810;SDS011;13645;52.460;13.910;2022-12-07T14:41:43;7.05;;;2.10;;
25810;SDS011;13645;52.460;13.910;2022-12-07T14:44:20;11.30;;;4.75;;
25810;SDS011;13645;52.460;13.910;2022-12-07T14:49:40;45.25;;;16.35;;
25810;SDS011;13645;52.460;13.910;2022-12-07T14:52:09;74.15;;;26.83;;
25810;SDS011;13645;52.460;13.910;2022-12-07T14:55:03;16.13;;;5.03;;
25810;SDS011;13645;52.460;13.910;2022-12-07T14:57:31;17.45;;;6.10;;
25810;SDS011;13645;52.460;13.910;2022-12-07T14:59:57;10.55;;;2.72;;
25810;SDS011;13645;52.460;13.910;2022-12-07T15:02:24;6.32;;;2.20;;
25810;SDS011;13645;52.460;13.910;2022-12-07T15:04:51;7.28;;;2.80;;
25810;SDS011;13645;52.460;13.910;2022-12-07T15:07:21;10.82;;;3.13;;
25810;SDS011;13645;52.460;13.910;2022-12-07T15:09:48;7.70;;;3.65;;
25810;SDS011;13645;52.460;13.910;2022-12-07T15:12:15;22.27;;;8.00;;
25810;SDS011;13645;52.460;13.910;2022-12-07T15:14:42;13.10;;;3.72;;
25810;SDS011;13645;52.460;13.910;2022-12-07T15:17:12;7.88;;;2.92;;
25810;SDS011;13645;52.460;13.910;2022-12-07T15:19:54;11.18;;;2.38;;
25810;SDS011;13645;52.460;13.910;2022-12-07T15:22:21;7.63;;;1.58;;
25810;SDS011;13645;52.460;13.910;2022-12-07T15:24:48;7.53;;;2.10;;
25810;SDS011;13645;52.460;13.910;2022-12-07T15:27:15;6.85;;;1.83;;
25810;SDS011;13645;52.460;13.910;2022-12-07T15:29:41;7.55;;;2.03;;
25810;SDS011;13645;52.460;13.910;2022-12-07T15:32:08;5.63;;;1.48;;
25810;SDS011;13645;52.460;13.910;2022-12-07T15:34:35;6.13;;;1.60;;
25810;SDS011;13645;52.460;13.910;2022-12-07T15:37:06;6.78;;;1.65;;
25810;SDS011;13645;52.460;13.910;2022-12-07T15:39:33;5.03;;;2.00;;
25810;SDS011;13645;52.460;13.910;2022-12-07T15:42:00;10.60;;;2.10;;
25810;SDS011;13645;52.460;13.910;2022-12-07T15:44:27;4.85;;;1.98;;
25810;SDS011;13645;52.460;13.910;2022-12-07T15:47:12;6.90;;;2.05;;
25810;SDS011;13645;52.460;13.910;2022-12-07T15:49:39;6.50;;;1.98;;
25810;SDS011;13645;52.460;13.910;2022-12-07T15:52:06;10.30;;;2.40;;
25810;SDS011;13645;52.460;13.910;2022-12-07T15:54:32;14.02;;;1.80;;
25810;SDS011;13645;52.460;13.910;2022-12-07T15:56:59;7.95;;;2.15;;
25810;SDS011;13645;52.460;13.910;2022-12-07T15:59:26;7.25;;;2.10;;
25810;SDS011;13645;52.460;13.910;2022-12-07T16:01:54;8.07;;;2.28;;
25810;SDS011;13645;52.460;13.910;2022-12-07T16:04:21;8.70;;;2.75;;
25810;SDS011;13645;52.460;13.910;2022-12-07T16:06:48;7.95;;;2.60;;
25810;SDS011;13645;52.460;13.910;2022-12-07T16:09:17;6.00;;;1.95;;
25810;SDS011;13645;52.460;13.910;2022-12-07T16:11:44;7.63;;;2.03;;
25810;SDS011;13645;52.460;13.910;2022-12-07T16:14:11;6.32;;;2.00;;
25810;SDS011;13645;52.460;13.910;2022-12-07T16:16:37;10.35;;;2.30;;
25810;SDS011;13645;52.460;13.910;2022-12-07T16:19:06;8.45;;;2.08;;
25810;SDS011;13645;52.460;13.910;2022-12-07T16:21:34;7.95;;;2.03;;
25810;SDS011;13645;52.460;13.910;2022-12-07T16:24:01;5.97;;;2.28;;
25810;SDS011;13645;52.460;13.910;2022-12-07T16:26:29;5.13;;;2.13;;
25810;SDS011;13645;52.460;13.910;2022-12-07T16:28:56;12.07;;;2.50;;
25810;SDS011;13645;52.460;13.910;2022-12-07T16:31:24;10.27;;;2.05;;
25810;SDS011;13645;52.460;13.910;2022-12-07T16:33:53;8.05;;;2.47;;
25810;SDS011;13645;52.460;13.910;2022-12-07T16:36:21;7.60;;;2.30;;
25810;SDS011;13645;52.460;13.910;2022-12-07T16:39:10;10.30;;;2.72;;
25810;SDS011;13645;52.460;13.910;2022-12-07T16:41:37;20.23;;;3.03;;
25810;SDS011;13645;52.460;13.910;2022-12-07T16:44:04;10.07;;;2.50;;
25810;SDS011;13645;52.460;13.910;2022-12-07T16:46:33;9.57;;;2.70;;
25810;SDS011;13645;52.460;13.910;2022-12-07T16:49:00;14.45;;;2.83;;
25810;SDS011;13645;52.460;13.910;2022-12-07T16:51:27;13.20;;;3.20;;
25810;SDS011;13645;52.460;13.910;2022-12-07T16:53:54;13.68;;;2.88;;
25810;SDS011;13645;52.460;13.910;2022-12-07T16:56:21;5.57;;;1.80;;
25810;SDS011;13645;52.460;13.910;2022-12-07T16:58:48;8.05;;;2.20;;
25810;SDS011;13645;52.460;13.910;2022-12-07T17:01:16;6.70;;;1.90;;
25810;SDS011;13645;52.460;13.910;2022-12-07T17:03:45;3.88;;;1.85;;
25810;SDS011;13645;52.460;13.910;2022-12-07T17:06:16;3.60;;;1.90;;
25810;SDS011;13645;52.460;13.910;2022-12-07T17:08:48;6.47;;;1.98;;
25810;SDS011;13645;52.460;13.910;2022-12-07T17:11:33;5.50;;;1.90;;
25810;SDS011;13645;52.460;13.910;2022-12-07T17:13:59;7.38;;;1.80;;
25810;SDS011;13645;52.460;13.910;2022-12-07T17:16:45;4.25;;;1.90;;
25810;SDS011;13645;52.460;13.910;2022-12-07T17:19:14;9.70;;;1.80;;
25810;SDS011;13645;52.460;13.910;2022-12-07T17:21:42;9.48;;;2.22;;
25810;SDS011;13645;52.460;13.910;2022-12-07T17:24:10;9.35;;;2.30;;
25810;SDS011;13645;52.460;13.910;2022-12-07T17:26:38;11.65;;;5.30;;
25810;SDS011;13645;52.460;13.910;2022-12-07T17:29:06;9.52;;;2.30;;
25810;SDS011;13645;52.460;13.910;2022-12-07T17:31:34;7.50;;;2.15;;
25810;SDS011;13645;52.460;13.910;2022-12-07T17:34:01;6.95;;;2.00;;
25810;SDS011;13645;52.460;13.910;2022-12-07T17:36:30;8.77;;;2.60;;
25810;SDS011;13645;52.460;13.910;2022-12-07T17:38:57;10.88;;;2.97;;
25810;SDS011;13645;52.460;13.910;2022-12-07T17:41:25;10.90;;;2.85;;
25810;SDS011;13645;52.460;13.910;2022-12-07T17:44:14;10.23;;;2.60;;